sensor_id;sensor_type;location;lat;lon;timestamp;P1;durP1;ratioP1;P2;durP2;ratioP2
83694;SDS011;73676;43.582;22.268;2024-01-15T00:01:07;207.02;;;86.95;;
83694;SDS011;73676;43.582;22.268;2024-01-15T00:03:33;714.97;;;301.90;;
83694;SDS011;73676;43.582;22.268;2024-01-15T00:05:58;172.40;;;80.67;;
83694;SDS011;73676;43.582;22.268;2024-01-15T00:08:23;254.93;;;130.43;;
83694;SDS011;73676;43.582;22.268;2024-01-15T00:10:49;182.00;;;97.83;;
83694;SDS011;73676;43.582;22.268;2024-01-15T00:13:15;128.35;;;66.03;;
83694;SDS011;73676;43.582;22.268;2024-01-15T00:15:42;233.98;;;106.05;;
83694;SDS011;73676;43.582;22.268;2024-01-15T00:18:07;128.85;;;67.32;;
83694;SDS011;73676;43.582;22.268;2024-01-15T00:20:35;124.20;;;64.30;;
83694;SDS011;73676;43.582;22.268;2024-01-15T00:23:00;134.48;;;70.28;;
83694;SDS011;73676;43.582;22.268;2024-01-15T00:25:25;193.75;;;96.65;;
83694;SDS011;73676;43.582;22.268;2024-01-15T00:27:51;124.20;;;60.95;;
83694;SDS011;73676;43.582;22.268;2024-01-15T00:30:16;136.93;;;69.17;;
83694;SDS011;73676;43.582;22.268;2024-01-15T00:32:41;143.75;;;73.03;;
83694;SDS011;73676;43.582;22.268;2024-01-15T00:35:07;155.50;;;84.17;;
83694;SDS011;73676;43.582;22.268;2024-01-15T00:37:32;231.95;;;112.20;;
83694;SDS011;73676;43.582;22.268;2024-01-15T00:39:58;232.90;;;113.03;;
83694;SDS011;73676;43.582;22.268;2024-01-15T00:42:24;201.63;;;102.17;;
83694;SDS011;73676;43.582;22.268;2024-01-15T00:44:50;122.20;;;60.40;;
83694;SDS011;73676;43.582;22.268;2024-01-15T00:49:44;176.23;;;93.03;;
83694;SDS011;73676;43.582;22.268;2024-01-15T00:52:10;164.57;;;86.10;;
83694;SDS011;73676;43.582;22.268;2024-01-15T00:54:35;159.50;;;85.17;;
83694;SDS011;73676;43.582;22.268;2024-01-15T00:57:00;217.27;;;109.50;;
83694;SDS011;73676;43.582;22.268;2024-01-15T00:59:26;141.20;;;75.30;;
83694;SDS011;73676;43.582;22.268;2024-01-15T01:01:51;126.03;;;67.67;;
83694;SDS011;73676;43.582;22.268;2024-01-15T01:04:17;123.43;;;63.03;;
83694;SDS011;73676;43.582;22.268;2024-01-15T01:06:42;104.63;;;52.42;;
83694;SDS011;73676;43.582;22.268;2024-01-15T01:09:07;94.50;;;44.42;;
83694;SDS011;73676;43.582;22.268;2024-01-15T01:11:33;76.53;;;41.73;;
83694;SDS011;73676;43.582;22.268;2024-01-15T01:13:58;73.30;;;38.97;;
83694;SDS011;73676;43.582;22.268;2024-01-15T01:16:23;85.80;;;43.30;;
83694;SDS011;73676;43.582;22.268;2024-01-15T01:18:49;142.15;;;71.18;;
83694;SDS011;73676;43.582;22.268;2024-01-15T01:21:14;167.90;;;95.57;;
83694;SDS011;73676;43.582;22.268;2024-01-15T01:23:39;138.13;;;69.23;;
83694;SDS011;73676;43.582;22.268;2024-01-15T01:26:05;130.33;;;67.87;;
83694;SDS011;73676;43.582;22.268;2024-01-15T01:28:30;120.30;;;67.57;;
83694;SDS011;73676;43.582;22.268;2024-01-15T01:30:55;124.07;;;62.75;;
83694;SDS011;73676;43.582;22.268;2024-01-15T01:33:21;98.17;;;52.30;;
83694;SDS011;73676;43.582;22.268;2024-01-15T01:35:46;97.67;;;50.37;;
83694;SDS011;73676;43.582;22.268;2024-01-15T01:38:12;107.27;;;55.83;;
83694;SDS011;73676;43.582;22.268;2024-01-15T01:40:37;89.38;;;47.67;;
83694;SDS011;73676;43.582;22.268;2024-01-15T01:43:04;89.87;;;49.30;;
83694;SDS011;73676;43.582;22.268;2024-01-15T01:45:29;90.15;;;51.20;;
83694;SDS011;73676;43.582;22.268;2024-01-15T01:47:54;87.33;;;47.43;;
83694;SDS011;73676;43.582;22.268;2024-01-15T01:50:19;101.07;;;53.83;;
83694;SDS011;73676;43.582;22.268;2024-01-15T01:52:45;120.80;;;58.00;;
83694;SDS011;73676;43.582;22.268;2024-01-15T01:55:11;93.23;;;48.63;;
83694;SDS011;73676;43.582;22.268;2024-01-15T01:57:37;94.23;;;48.83;;
83694;SDS011;73676;43.582;22.268;2024-01-15T02:00:03;108.90;;;54.10;;
83694;SDS011;73676;43.582;22.268;2024-01-15T02:02:29;114.23;;;60.70;;
83694;SDS011;73676;43.582;22.268;2024-01-15T02:04:55;134.03;;;75.00;;
83694;SDS011;73676;43.582;22.268;2024-01-15T02:07:21;124.53;;;66.63;;
83694;SDS011;73676;43.582;22.268;2024-01-15T02:09:46;119.50;;;62.17;;
83694;SDS011;73676;43.582;22.268;2024-01-15T02:12:11;132.20;;;72.67;;
83694;SDS011;73676;43.582;22.268;2024-01-15T02:14:37;135.37;;;74.17;;
83694;SDS011;73676;43.582;22.268;2024-01-15T02:17:02;118.27;;;65.10;;
83694;SDS011;73676;43.582;22.268;2024-01-15T02:19:27;126.13;;;71.40;;
83694;SDS011;73676;43.582;22.268;2024-01-15T02:21:53;142.73;;;72.05;;
83694;SDS011;73676;43.582;22.268;2024-01-15T02:24:18;142.63;;;73.83;;
83694;SDS011;73676;43.582;22.268;2024-01-15T02:26:43;151.23;;;82.57;;
83694;SDS011;73676;43.582;22.268;2024-01-15T02:29:09;160.20;;;88.43;;
83694;SDS011;73676;43.582;22.268;2024-01-15T02:31:35;159.03;;;89.87;;
83694;SDS011;73676;43.582;22.268;2024-01-15T02:34:01;172.63;;;91.07;;
83694;SDS011;73676;43.582;22.268;2024-01-15T02:36:26;162.30;;;83.90;;
83694;SDS011;73676;43.582;22.268;2024-01-15T02:38:51;167.67;;;88.57;;
83694;SDS011;73676;43.582;22.268;2024-01-15T02:41:16;173.13;;;93.27;;
83694;SDS011;73676;43.582;22.268;2024-01-15T02:43:42;153.17;;;82.53;;
83694;SDS011;73676;43.582;22.268;2024-01-15T02:46:07;154.90;;;82.27;;
83694;SDS011;73676;43.582;22.268;2024-01-15T02:48:32;142.97;;;76.03;;
83694;SDS011;73676;43.582;22.268;2024-01-15T02:50:59;188.97;;;93.37;;
83694;SDS011;73676;43.582;22.268;2024-01-15T02:53:25;187.40;;;93.97;;
83694;SDS011;73676;43.582;22.268;2024-01-15T02:55:50;191.27;;;94.00;;
83694;SDS011;73676;43.582;22.268;2024-01-15T02:58:15;181.47;;;93.40;;
83694;SDS011;73676;43.582;22.268;2024-01-15T03:00:41;190.73;;;112.23;;
83694;SDS011;73676;43.582;22.268;2024-01-15T03:03:07;94.40;;;48.17;;
83694;SDS011;73676;43.582;22.268;2024-01-15T03:05:32;70.07;;;38.67;;
83694;SDS011;73676;43.582;22.268;2024-01-15T03:07:58;81.07;;;44.63;;
83694;SDS011;73676;43.582;22.268;2024-01-15T03:10:23;90.13;;;48.47;;
83694;SDS011;73676;43.582;22.268;2024-01-15T03:12:49;107.67;;;58.00;;
83694;SDS011;73676;43.582;22.268;2024-01-15T03:15:14;110.80;;;56.90;;
83694;SDS011;73676;43.582;22.268;2024-01-15T03:17:41;264.00;;;94.23;;
83694;SDS011;73676;43.582;22.268;2024-01-15T03:20:06;87.87;;;46.50;;
83694;SDS011;73676;43.582;22.268;2024-01-15T03:22:32;92.40;;;48.33;;
83694;SDS011;73676;43.582;22.268;2024-01-15T03:24:57;100.77;;;55.17;;
83694;SDS011;73676;43.582;22.268;2024-01-15T03:27:23;101.17;;;55.10;;
83694;SDS011;73676;43.582;22.268;2024-01-15T03:29:48;129.90;;;68.07;;
83694;SDS011;73676;43.582;22.268;2024-01-15T03:32:13;123.60;;;63.70;;
83694;SDS011;73676;43.582;22.268;2024-01-15T03:34:40;122.10;;;63.27;;
83694;SDS011;73676;43.582;22.268;2024-01-15T03:37:06;163.13;;;85.17;;
83694;SDS011;73676;43.582;22.268;2024-01-15T03:39:31;153.27;;;80.15;;
83694;SDS011;73676;43.582;22.268;2024-01-15T03:41:56;168.20;;;69.00;;
83694;SDS011;73676;43.582;22.268;2024-01-15T03:44:22;99.50;;;33.73;;
83694;SDS011;73676;43.582;22.268;2024-01-15T03:46:47;43.83;;;22.20;;
83694;SDS011;73676;43.582;22.268;2024-01-15T03:49:13;44.50;;;23.67;;
83694;SDS011;73676;43.582;22.268;2024-01-15T03:51:38;63.37;;;31.80;;
83694;SDS011;73676;43.582;22.268;2024-01-15T03:54:03;70.47;;;34.80;;
83694;SDS011;73676;43.582;22.268;2024-01-15T03:56:30;70.67;;;37.07;;
83694;SDS011;73676;43.582;22.268;2024-01-15T03:58:56;67.77;;;35.53;;
83694;SDS011;73676;43.582;22.268;2024-01-15T04:01:21;404.30;;;98.90;;
83694;SDS011;73676;43.582;22.268;2024-01-15T04:03:46;160.30;;;44.67;;
83694;SDS011;73676;43.582;22.268;2024-01-15T04:06:11;177.73;;;54.30;;
83694;SDS011;73676;43.582;22.268;2024-01-15T04:08:37;147.95;;;47.25;;
83694;SDS011;73676;43.582;22.268;2024-01-15T04:11:02;52.95;;;26.52;;
83694;SDS011;73676;43.582;22.268;2024-01-15T04:13:28;34.35;;;17.27;;
83694;SDS011;73676;43.582;22.268;2024-01-15T04:15:54;25.53;;;14.57;;
83694;SDS011;73676;43.582;22.268;2024-01-15T04:18:19;31.37;;;20.60;;
83694;SDS011;73676;43.582;22.268;2024-01-15T04:20:44;40.63;;;24.00;;
83694;SDS011;73676;43.582;22.268;2024-01-15T04:23:10;74.28;;;36.92;;
83694;SDS011;73676;43.582;22.268;2024-01-15T04:25:35;47.58;;;24.95;;
83694;SDS011;73676;43.582;22.268;2024-01-15T04:28:00;42.47;;;22.98;;
83694;SDS011;73676;43.582;22.268;2024-01-15T04:30:26;63.58;;;35.97;;
83694;SDS011;73676;43.582;22.268;2024-01-15T04:32:51;81.53;;;43.00;;
83694;SDS011;73676;43.582;22.268;2024-01-15T04:35:16;99.22;;;48.15;;
83694;SDS011;73676;43.582;22.268;2024-01-15T04:37:42;103.40;;;54.97;;
83694;SDS011;73676;43.582;22.268;2024-01-15T04:40:07;102.80;;;57.37;;
83694;SDS011;73676;43.582;22.268;2024-01-15T04:42:33;91.00;;;52.63;;
83694;SDS011;73676;43.582;22.268;2024-01-15T04:44:58;74.55;;;44.15;;
83694;SDS011;73676;43.582;22.268;2024-01-15T04:47:23;73.38;;;40.03;;
83694;SDS011;73676;43.582;22.268;2024-01-15T04:49:49;95.68;;;58.67;;
83694;SDS011;73676;43.582;22.268;2024-01-15T04:52:14;67.97;;;39.38;;
83694;SDS011;73676;43.582;22.268;2024-01-15T04:54:39;86.78;;;44.08;;
83694;SDS011;73676;43.582;22.268;2024-01-15T04:57:05;74.85;;;40.58;;
83694;SDS011;73676;43.582;22.268;2024-01-15T04:59:30;67.97;;;37.88;;
83694;SDS011;73676;43.582;22.268;2024-01-15T05:01:56;55.60;;;31.58;;
83694;SDS011;73676;43.582;22.268;2024-01-15T05:04:21;55.22;;;31.00;;
83694;SDS011;73676;43.582;22.268;2024-01-15T05:06:46;79.35;;;45.80;;
83694;SDS011;73676;43.582;22.268;2024-01-15T05:09:12;54.80;;;33.08;;
83694;SDS011;73676;43.582;22.268;2024-01-15T05:11:39;53.25;;;32.88;;
83694;SDS011;73676;43.582;22.268;2024-01-15T05:14:04;62.28;;;35.58;;
83694;SDS011;73676;43.582;22.268;2024-01-15T05:16:30;73.43;;;41.35;;
83694;SDS011;73676;43.582;22.268;2024-01-15T05:18:55;133.90;;;81.70;;
83694;SDS011;73676;43.582;22.268;2024-01-15T05:21:20;138.48;;;73.50;;
83694;SDS011;73676;43.582;22.268;2024-01-15T05:23:45;206.60;;;108.25;;
83694;SDS011;73676;43.582;22.268;2024-01-15T05:26:11;193.98;;;93.38;;
83694;SDS011;73676;43.582;22.268;2024-01-15T05:28:36;174.65;;;79.00;;
83694;SDS011;73676;43.582;22.268;2024-01-15T05:31:02;159.32;;;61.45;;
83694;SDS011;73676;43.582;22.268;2024-01-15T05:33:28;266.60;;;112.45;;
83694;SDS011;73676;43.582;22.268;2024-01-15T05:35:53;152.50;;;69.82;;
83694;SDS011;73676;43.582;22.268;2024-01-15T05:38:19;109.87;;;53.83;;
83694;SDS011;73676;43.582;22.268;2024-01-15T05:40:46;87.80;;;43.60;;
83694;SDS011;73676;43.582;22.268;2024-01-15T05:43:12;102.57;;;56.83;;
83694;SDS011;73676;43.582;22.268;2024-01-15T05:45:38;62.70;;;36.58;;
83694;SDS011;73676;43.582;22.268;2024-01-15T05:48:03;118.27;;;71.33;;
83694;SDS011;73676;43.582;22.268;2024-01-15T05:50:29;82.10;;;50.33;;
83694;SDS011;73676;43.582;22.268;2024-01-15T05:52:54;66.72;;;40.33;;
83694;SDS011;73676;43.582;22.268;2024-01-15T05:55:19;73.82;;;43.33;;
83694;SDS011;73676;43.582;22.268;2024-01-15T05:57:45;56.42;;;32.92;;
83694;SDS011;73676;43.582;22.268;2024-01-15T06:00:10;50.83;;;29.52;;
83694;SDS011;73676;43.582;22.268;2024-01-15T06:02:39;59.75;;;37.38;;
83694;SDS011;73676;43.582;22.268;2024-01-15T06:05:04;66.53;;;38.63;;
83694;SDS011;73676;43.582;22.268;2024-01-15T06:07:30;531.05;;;210.23;;
83694;SDS011;73676;43.582;22.268;2024-01-15T06:09:55;366.38;;;162.77;;
83694;SDS011;73676;43.582;22.268;2024-01-15T06:12:22;348.38;;;137.35;;
83694;SDS011;73676;43.582;22.268;2024-01-15T06:14:47;132.98;;;65.38;;
83694;SDS011;73676;43.582;22.268;2024-01-15T06:17:13;185.65;;;86.78;;
83694;SDS011;73676;43.582;22.268;2024-01-15T06:19:39;123.28;;;60.38;;
83694;SDS011;73676;43.582;22.268;2024-01-15T06:22:04;100.13;;;50.28;;
83694;SDS011;73676;43.582;22.268;2024-01-15T06:24:29;295.63;;;129.52;;
83694;SDS011;73676;43.582;22.268;2024-01-15T06:26:55;156.38;;;70.45;;
83694;SDS011;73676;43.582;22.268;2024-01-15T06:29:20;247.57;;;124.10;;
83694;SDS011;73676;43.582;22.268;2024-01-15T06:31:46;193.65;;;107.50;;
83694;SDS011;73676;43.582;22.268;2024-01-15T06:34:11;90.93;;;53.03;;
83694;SDS011;73676;43.582;22.268;2024-01-15T06:36:37;300.30;;;154.93;;
83694;SDS011;73676;43.582;22.268;2024-01-15T06:39:03;569.90;;;321.48;;
83694;SDS011;73676;43.582;22.268;2024-01-15T06:41:28;272.50;;;121.40;;
83694;SDS011;73676;43.582;22.268;2024-01-15T06:43:53;323.25;;;139.88;;
83694;SDS011;73676;43.582;22.268;2024-01-15T06:46:19;208.52;;;95.70;;
83694;SDS011;73676;43.582;22.268;2024-01-15T06:48:45;673.70;;;309.65;;
83694;SDS011;73676;43.582;22.268;2024-01-15T06:51:10;209.27;;;102.95;;
83694;SDS011;73676;43.582;22.268;2024-01-15T06:53:35;217.60;;;120.43;;
83694;SDS011;73676;43.582;22.268;2024-01-15T06:56:01;230.98;;;126.22;;
83694;SDS011;73676;43.582;22.268;2024-01-15T06:58:26;488.50;;;213.45;;
83694;SDS011;73676;43.582;22.268;2024-01-15T07:00:51;402.17;;;188.50;;
83694;SDS011;73676;43.582;22.268;2024-01-15T07:03:16;230.55;;;124.25;;
83694;SDS011;73676;43.582;22.268;2024-01-15T07:05:42;168.63;;;107.38;;
83694;SDS011;73676;43.582;22.268;2024-01-15T07:08:07;143.57;;;103.75;;
83694;SDS011;73676;43.582;22.268;2024-01-15T07:10:33;246.40;;;141.77;;
83694;SDS011;73676;43.582;22.268;2024-01-15T07:12:58;147.60;;;93.80;;
83694;SDS011;73676;43.582;22.268;2024-01-15T07:15:24;179.52;;;104.53;;
83694;SDS011;73676;43.582;22.268;2024-01-15T07:17:49;474.10;;;172.93;;
83694;SDS011;73676;43.582;22.268;2024-01-15T07:20:14;241.68;;;116.18;;
83694;SDS011;73676;43.582;22.268;2024-01-15T07:22:40;204.50;;;101.10;;
83694;SDS011;73676;43.582;22.268;2024-01-15T07:25:06;601.80;;;326.27;;
83694;SDS011;73676;43.582;22.268;2024-01-15T07:27:32;709.67;;;315.38;;
83694;SDS011;73676;43.582;22.268;2024-01-15T07:29:57;398.15;;;197.60;;
83694;SDS011;73676;43.582;22.268;2024-01-15T07:32:23;745.55;;;315.40;;
83694;SDS011;73676;43.582;22.268;2024-01-15T07:34:48;560.30;;;233.93;;
83694;SDS011;73676;43.582;22.268;2024-01-15T07:37:14;153.73;;;80.22;;
83694;SDS011;73676;43.582;22.268;2024-01-15T07:39:39;594.88;;;289.95;;
83694;SDS011;73676;43.582;22.268;2024-01-15T07:42:05;167.02;;;99.93;;
83694;SDS011;73676;43.582;22.268;2024-01-15T07:44:30;173.40;;;99.20;;
83694;SDS011;73676;43.582;22.268;2024-01-15T07:46:55;342.00;;;179.50;;
83694;SDS011;73676;43.582;22.268;2024-01-15T07:49:21;315.90;;;168.43;;
83694;SDS011;73676;43.582;22.268;2024-01-15T07:51:48;159.82;;;102.28;;
83694;SDS011;73676;43.582;22.268;2024-01-15T07:54:14;459.08;;;250.57;;
83694;SDS011;73676;43.582;22.268;2024-01-15T07:57:01;272.77;;;151.10;;
83694;SDS011;73676;43.582;22.268;2024-01-15T07:59:30;264.40;;;141.13;;
83694;SDS011;73676;43.582;22.268;2024-01-15T08:01:55;339.83;;;165.38;;
83694;SDS011;73676;43.582;22.268;2024-01-15T08:04:20;644.85;;;302.58;;
83694;SDS011;73676;43.582;22.268;2024-01-15T08:06:47;338.02;;;158.50;;
83694;SDS011;73676;43.582;22.268;2024-01-15T08:09:12;253.05;;;129.55;;
83694;SDS011;73676;43.582;22.268;2024-01-15T08:11:40;216.70;;;130.50;;
83694;SDS011;73676;43.582;22.268;2024-01-15T08:14:13;180.20;;;108.18;;
83694;SDS011;73676;43.582;22.268;2024-01-15T08:16:38;168.82;;;104.82;;
83694;SDS011;73676;43.582;22.268;2024-01-15T08:19:04;543.67;;;261.75;;
83694;SDS011;73676;43.582;22.268;2024-01-15T08:21:29;383.85;;;183.07;;
83694;SDS011;73676;43.582;22.268;2024-01-15T08:23:58;204.00;;;107.40;;
83694;SDS011;73676;43.582;22.268;2024-01-15T08:26:23;441.40;;;222.80;;
83694;SDS011;73676;43.582;22.268;2024-01-15T08:28:49;432.05;;;248.50;;
83694;SDS011;73676;43.582;22.268;2024-01-15T08:31:14;446.83;;;261.13;;
83694;SDS011;73676;43.582;22.268;2024-01-15T08:33:39;541.97;;;317.98;;
83694;SDS011;73676;43.582;22.268;2024-01-15T08:36:05;503.23;;;298.63;;
83694;SDS011;73676;43.582;22.268;2024-01-15T08:38:30;536.58;;;325.63;;
83694;SDS011;73676;43.582;22.268;2024-01-15T08:40:56;737.58;;;477.83;;
83694;SDS011;73676;43.582;22.268;2024-01-15T08:43:23;804.80;;;527.33;;
83694;SDS011;73676;43.582;22.268;2024-01-15T08:45:49;799.15;;;530.50;;
83694;SDS011;73676;43.582;22.268;2024-01-15T08:48:14;766.95;;;517.38;;
83694;SDS011;73676;43.582;22.268;2024-01-15T08:50:42;785.87;;;527.73;;
83694;SDS011;73676;43.582;22.268;2024-01-15T08:53:11;787.08;;;539.00;;
83694;SDS011;73676;43.582;22.268;2024-01-15T08:55:39;727.17;;;520.05;;
83694;SDS011;73676;43.582;22.268;2024-01-15T08:58:05;822.72;;;564.13;;
83694;SDS011;73676;43.582;22.268;2024-01-15T09:00:35;800.00;;;553.97;;
83694;SDS011;73676;43.582;22.268;2024-01-15T09:05:25;721.35;;;486.05;;
83694;SDS011;73676;43.582;22.268;2024-01-15T09:08:00;741.92;;;480.95;;
83694;SDS011;73676;43.582;22.268;2024-01-15T09:10:28;684.33;;;421.10;;
83694;SDS011;73676;43.582;22.268;2024-01-15T09:12:53;600.13;;;362.23;;
83694;SDS011;73676;43.582;22.268;2024-01-15T09:15:18;617.47;;;365.25;;
83694;SDS011;73676;43.582;22.268;2024-01-15T09:17:45;601.50;;;359.88;;
83694;SDS011;73676;43.582;22.268;2024-01-15T09:20:11;576.22;;;343.75;;
83694;SDS011;73676;43.582;22.268;2024-01-15T09:22:39;535.78;;;317.45;;
83694;SDS011;73676;43.582;22.268;2024-01-15T09:25:08;495.17;;;280.13;;
83694;SDS011;73676;43.582;22.268;2024-01-15T09:27:35;424.40;;;225.15;;
83694;SDS011;73676;43.582;22.268;2024-01-15T09:30:00;273.33;;;142.98;;
83694;SDS011;73676;43.582;22.268;2024-01-15T09:32:25;307.90;;;153.40;;
83694;SDS011;73676;43.582;22.268;2024-01-15T09:34:50;237.05;;;129.63;;
83694;SDS011;73676;43.582;22.268;2024-01-15T09:37:16;266.63;;;147.27;;
83694;SDS011;73676;43.582;22.268;2024-01-15T09:39:41;316.58;;;175.13;;
83694;SDS011;73676;43.582;22.268;2024-01-15T09:42:07;459.33;;;266.33;;
83694;SDS011;73676;43.582;22.268;2024-01-15T09:44:33;350.55;;;173.05;;
83694;SDS011;73676;43.582;22.268;2024-01-15T09:46:59;419.27;;;236.52;;
83694;SDS011;73676;43.582;22.268;2024-01-15T09:49:24;306.05;;;160.85;;
83694;SDS011;73676;43.582;22.268;2024-01-15T09:51:50;264.02;;;149.88;;
83694;SDS011;73676;43.582;22.268;2024-01-15T09:54:16;280.50;;;143.73;;
83694;SDS011;73676;43.582;22.268;2024-01-15T09:56:44;231.45;;;128.43;;
83694;SDS011;73676;43.582;22.268;2024-01-15T09:59:10;277.42;;;145.80;;
83694;SDS011;73676;43.582;22.268;2024-01-15T10:01:35;215.52;;;120.05;;
83694;SDS011;73676;43.582;22.268;2024-01-15T10:04:01;207.77;;;122.97;;
83694;SDS011;73676;43.582;22.268;2024-01-15T10:06:27;231.38;;;131.75;;
83694;SDS011;73676;43.582;22.268;2024-01-15T10:08:56;317.02;;;160.60;;
83694;SDS011;73676;43.582;22.268;2024-01-15T10:11:23;235.63;;;128.98;;
83694;SDS011;73676;43.582;22.268;2024-01-15T10:13:48;208.60;;;122.45;;
83694;SDS011;73676;43.582;22.268;2024-01-15T10:16:18;209.82;;;120.20;;
83694;SDS011;73676;43.582;22.268;2024-01-15T10:18:44;213.98;;;122.32;;
83694;SDS011;73676;43.582;22.268;2024-01-15T10:21:11;254.60;;;143.40;;
83694;SDS011;73676;43.582;22.268;2024-01-15T10:23:36;290.98;;;161.15;;
83694;SDS011;73676;43.582;22.268;2024-01-15T10:26:03;285.65;;;154.48;;
83694;SDS011;73676;43.582;22.268;2024-01-15T10:28:29;234.38;;;139.57;;
83694;SDS011;73676;43.582;22.268;2024-01-15T10:30:56;309.02;;;165.25;;
83694;SDS011;73676;43.582;22.268;2024-01-15T10:33:22;271.40;;;152.75;;
83694;SDS011;73676;43.582;22.268;2024-01-15T10:35:50;324.47;;;172.07;;
83694;SDS011;73676;43.582;22.268;2024-01-15T10:38:16;359.48;;;200.27;;
83694;SDS011;73676;43.582;22.268;2024-01-15T10:40:43;352.15;;;200.40;;
83694;SDS011;73676;43.582;22.268;2024-01-15T10:43:08;325.30;;;183.32;;
83694;SDS011;73676;43.582;22.268;2024-01-15T10:45:35;251.55;;;146.38;;
83694;SDS011;73676;43.582;22.268;2024-01-15T10:48:00;232.60;;;121.75;;
83694;SDS011;73676;43.582;22.268;2024-01-15T10:50:28;160.50;;;102.85;;
83694;SDS011;73676;43.582;22.268;2024-01-15T10:52:54;178.68;;;102.38;;
83694;SDS011;73676;43.582;22.268;2024-01-15T10:55:20;147.52;;;81.82;;
83694;SDS011;73676;43.582;22.268;2024-01-15T10:57:46;200.27;;;99.72;;
83694;SDS011;73676;43.582;22.268;2024-01-15T11:00:13;121.97;;;69.28;;
83694;SDS011;73676;43.582;22.268;2024-01-15T11:02:40;117.82;;;58.63;;
83694;SDS011;73676;43.582;22.268;2024-01-15T11:05:06;104.68;;;52.13;;
83694;SDS011;73676;43.582;22.268;2024-01-15T11:07:31;95.30;;;50.00;;
83694;SDS011;73676;43.582;22.268;2024-01-15T11:09:56;92.00;;;49.95;;
83694;SDS011;73676;43.582;22.268;2024-01-15T11:12:24;98.85;;;48.30;;
83694;SDS011;73676;43.582;22.268;2024-01-15T11:14:50;87.57;;;43.72;;
83694;SDS011;73676;43.582;22.268;2024-01-15T11:17:16;172.98;;;73.90;;
83694;SDS011;73676;43.582;22.268;2024-01-15T11:22:47;79.93;;;48.53;;
83694;SDS011;73676;43.582;22.268;2024-01-15T11:24:56;188.60;;;98.77;;
83694;SDS011;73676;43.582;22.268;2024-01-15T11:30:10;165.13;;;91.45;;
83694;SDS011;73676;43.582;22.268;2024-01-15T11:32:38;159.40;;;85.80;;
83694;SDS011;73676;43.582;22.268;2024-01-15T11:35:07;148.23;;;81.28;;
83694;SDS011;73676;43.582;22.268;2024-01-15T11:40:36;211.85;;;111.85;;
83694;SDS011;73676;43.582;22.268;2024-01-15T11:43:07;213.15;;;115.68;;
83694;SDS011;73676;43.582;22.268;2024-01-15T11:45:34;239.75;;;132.73;;
83694;SDS011;73676;43.582;22.268;2024-01-15T11:50:31;112.75;;;70.97;;
83694;SDS011;73676;43.582;22.268;2024-01-15T11:53:00;304.55;;;150.98;;
83694;SDS011;73676;43.582;22.268;2024-01-15T11:57:52;185.38;;;116.28;;
83694;SDS011;73676;43.582;22.268;2024-01-15T12:00:19;237.25;;;145.85;;
83694;SDS011;73676;43.582;22.268;2024-01-15T12:02:45;303.00;;;178.93;;
83694;SDS011;73676;43.582;22.268;2024-01-15T12:05:11;356.65;;;215.88;;
83694;SDS011;73676;43.582;22.268;2024-01-15T12:07:40;367.05;;;218.73;;
83694;SDS011;73676;43.582;22.268;2024-01-15T12:10:12;210.20;;;124.72;;
83694;SDS011;73676;43.582;22.268;2024-01-15T12:15:15;170.95;;;100.65;;
83694;SDS011;73676;43.582;22.268;2024-01-15T12:17:40;221.18;;;117.80;;
83694;SDS011;73676;43.582;22.268;2024-01-15T12:20:06;131.60;;;74.60;;
83694;SDS011;73676;43.582;22.268;2024-01-15T12:22:32;112.95;;;65.78;;
83694;SDS011;73676;43.582;22.268;2024-01-15T12:24:58;86.18;;;47.35;;
83694;SDS011;73676;43.582;22.268;2024-01-15T12:27:23;100.22;;;57.88;;
83694;SDS011;73676;43.582;22.268;2024-01-15T12:29:49;87.53;;;50.63;;
83694;SDS011;73676;43.582;22.268;2024-01-15T12:32:15;103.25;;;57.80;;
83694;SDS011;73676;43.582;22.268;2024-01-15T12:34:40;100.00;;;61.08;;
83694;SDS011;73676;43.582;22.268;2024-01-15T12:37:06;76.60;;;47.45;;
83694;SDS011;73676;43.582;22.268;2024-01-15T12:39:33;106.03;;;66.13;;
83694;SDS011;73676;43.582;22.268;2024-01-15T12:42:01;62.53;;;40.65;;
83694;SDS011;73676;43.582;22.268;2024-01-15T12:44:26;84.60;;;47.65;;
83694;SDS011;73676;43.582;22.268;2024-01-15T12:46:52;43.53;;;27.38;;
83694;SDS011;73676;43.582;22.268;2024-01-15T12:49:17;82.50;;;55.60;;
83694;SDS011;73676;43.582;22.268;2024-01-15T12:51:42;59.20;;;39.70;;
83694;SDS011;73676;43.582;22.268;2024-01-15T12:54:08;65.40;;;39.65;;
83694;SDS011;73676;43.582;22.268;2024-01-15T12:56:33;49.75;;;28.05;;
83694;SDS011;73676;43.582;22.268;2024-01-15T12:58:58;63.92;;;38.13;;
83694;SDS011;73676;43.582;22.268;2024-01-15T13:01:24;52.30;;;32.25;;
83694;SDS011;73676;43.582;22.268;2024-01-15T13:03:49;123.88;;;56.40;;
83694;SDS011;73676;43.582;22.268;2024-01-15T13:06:15;63.25;;;34.88;;
83694;SDS011;73676;43.582;22.268;2024-01-15T13:08:40;43.00;;;26.02;;
83694;SDS011;73676;43.582;22.268;2024-01-15T13:11:05;45.45;;;29.23;;
83694;SDS011;73676;43.582;22.268;2024-01-15T13:13:31;30.73;;;20.02;;
83694;SDS011;73676;43.582;22.268;2024-01-15T13:15:59;30.70;;;20.13;;
83694;SDS011;73676;43.582;22.268;2024-01-15T13:18:25;37.30;;;24.70;;
83694;SDS011;73676;43.582;22.268;2024-01-15T13:20:50;59.08;;;35.20;;
83694;SDS011;73676;43.582;22.268;2024-01-15T13:23:15;50.00;;;31.63;;
83694;SDS011;73676;43.582;22.268;2024-01-15T13:25:41;41.40;;;28.40;;
83694;SDS011;73676;43.582;22.268;2024-01-15T13:28:07;51.72;;;34.45;;
83694;SDS011;73676;43.582;22.268;2024-01-15T13:30:33;78.78;;;48.15;;
83694;SDS011;73676;43.582;22.268;2024-01-15T13:32:58;72.03;;;43.28;;
83694;SDS011;73676;43.582;22.268;2024-01-15T13:35:28;75.45;;;47.03;;
83694;SDS011;73676;43.582;22.268;2024-01-15T13:37:54;72.60;;;47.92;;
83694;SDS011;73676;43.582;22.268;2024-01-15T13:40:19;87.88;;;61.35;;
83694;SDS011;73676;43.582;22.268;2024-01-15T13:42:46;128.40;;;75.40;;
83694;SDS011;73676;43.582;22.268;2024-01-15T13:45:12;145.20;;;86.40;;
83694;SDS011;73676;43.582;22.268;2024-01-15T13:47:40;114.00;;;68.60;;
83694;SDS011;73676;43.582;22.268;2024-01-15T13:50:07;232.65;;;130.93;;
83694;SDS011;73676;43.582;22.268;2024-01-15T13:52:32;46.58;;;30.27;;
83694;SDS011;73676;43.582;22.268;2024-01-15T13:54:58;87.55;;;56.10;;
83694;SDS011;73676;43.582;22.268;2024-01-15T13:57:23;68.05;;;44.80;;
83694;SDS011;73676;43.582;22.268;2024-01-15T13:59:48;56.38;;;38.65;;
83694;SDS011;73676;43.582;22.268;2024-01-15T14:02:14;111.13;;;76.28;;
83694;SDS011;73676;43.582;22.268;2024-01-15T14:04:39;61.55;;;36.05;;
83694;SDS011;73676;43.582;22.268;2024-01-15T14:07:12;93.97;;;61.90;;
83694;SDS011;73676;43.582;22.268;2024-01-15T14:09:37;48.47;;;34.78;;